Time;durP1;ratioP1;P1;durP2;ratioP2;P2;SDS_P1;SDS_P2;PMS_P1;PMS_P2;Temp;Humidity;BMP_temperature;BMP_pressure;BME280_temperature;BME280_humidity;BME280_pressure;Samples;Min_cycle;Max_cycle;Signal;HPM_P1;HPM_P2
2022/01/12 02:55:38;;;;;;;;;;;20.00;56.90;;;;;;5705098;22;13605559;-90
2022/01/12 02:58:58;;;;;;;;;;;20.20;64.40;;;;;;6216240;23;19912;-93
2022/01/12 03:07:30;;;;;;;;;;;;;;;;;;;;;
2022/01/12 03:09:56;;;;;;;;;;;20.20;63.90;;;;;;6032618;23;19973;-90
2022/01/12 03:12:21;;;;;;;;;;;20.20;60.10;;;;;;6167327;23;19957;-90
2022/01/12 03:14:47;;;;;;;;;;;20.20;60.10;;;;;;6213872;23;19931;-86
2022/01/12 03:17:15;;;;;;;;;;;20.20;56.90;;;;;;6240257;23;19911;-87
2022/01/12 03:19:40;;;;;;;;;;;20.20;55.90;;;;;;6213776;23;20012;-89
2022/01/12 03:22:06;;;;;;;;;;;20.10;56.00;;;;;;6240597;23;20354;-84
2022/01/12 03:24:57;;;;;;;;;;;20.00;55.40;;;;;;6242538;23;19931;-94
2022/01/12 03:27:25;;;;;;;;;;;20.00;55.60;;;;;;6249897;23;19914;-94
2022/01/12 03:29:54;;;;;;;;;;;20.00;58.30;;;;;;6246808;23;19903;-90
2022/01/12 03:32:26;;;;;;;;;;;20.10;59.80;;;;;;6215008;23;19954;-88
2022/01/12 03:34:57;;;;;;;;;;;20.10;56.40;;;;;;6240326;23;19903;-88
2022/01/12 03:37:41;;;;;;;;;;;20.20;56.30;;;;;;6240772;23;19907;-88
2022/01/12 03:40:07;;;;;;;;;;;20.20;56.10;;;;;;6213645;23;19916;-88
2022/01/12 03:42:33;;;;;;;;;;;20.30;56.30;;;;;;6214980;23;19926;-87
2022/01/12 03:44:58;;;;;;;;;;;20.30;57.70;;;;;;6240259;23;19935;-87
2022/01/12 03:47:24;;;;;;;;;;;20.40;56.30;;;;;;6213847;23;20162;-88
2022/01/12 03:49:49;;;;;;;;;;;20.40;57.00;;;;;;6214220;23;20275;-89
2022/01/12 03:52:15;;;;;;;;;;;17.80;60.40;;;;;;6213898;23;20287;-87
2022/01/12 03:54:40;;;;;;;;;;;20.50;56.90;;;;;;6240370;23;19982;-87
2022/01/12 03:57:06;;;;;;;;;;;20.50;57.60;;;;;;6212818;23;19986;-86
2022/01/12 03:59:32;;;;;;;;;;;20.50;56.90;;;;;;6214068;23;19914;-87
2022/01/12 04:01:57;;;;;;;;;;;20.50;57.70;;;;;;6239883;23;19918;-87
2022/01/12 04:04:31;;;;;;;;;;;20.50;58.90;;;;;;6213298;23;19909;-87
2022/01/12 04:09:41;;;;;;;;;;;20.50;56.50;;;;;;6241928;23;19914;-88
2022/01/12 04:12:07;;;;;;;;;;;20.50;57.10;;;;;;6241954;23;19943;-86
2022/01/12 04:14:33;;;;;;;;;;;20.50;56.00;;;;;;6216003;23;19904;-88
2022/01/12 04:16:58;;;;;;;;;;;20.50;56.00;;;;;;6242279;23;20304;-87
2022/01/12 04:19:25;;;;;;;;;;;20.50;56.20;;;;;;6241668;23;20163;-87
2022/01/12 04:21:51;;;;;;;;;;;20.60;55.80;;;;;;6241881;23;20332;-89
2022/01/12 04:24:16;;;;;;;;;;;20.50;56.00;;;;;;6241853;23;19958;-90
2022/01/12 04:26:42;;;;;;;;;;;20.60;56.30;;;;;;6215061;23;20225;-87
2022/01/12 04:29:08;;;;;;;;;;;20.50;55.70;;;;;;6241646;23;19934;-88
2022/01/12 04:31:34;;;;;;;;;;;20.50;55.80;;;;;;6242683;23;20259;-88
2022/01/12 04:34:00;;;;;;;;;;;20.50;55.40;;;;;;6243163;23;19990;-87
2022/01/12 04:36:26;;;;;;;;;;;20.50;55.70;;;;;;6241879;23;19939;-88
2022/01/12 04:38:51;;;;;;;;;;;20.50;55.50;;;;;;6241651;23;19912;-87
2022/01/12 04:41:24;;;;;;;;;;;20.50;55.50;;;;;;6242567;23;20221;-93
2022/01/12 04:43:50;;;;;;;;;;;20.50;58.80;;;;;;6214827;23;19952;-91
2022/01/12 04:51:17;;;;;;;;;;;20.30;56.10;;;;;;6241240;23;20597;-82
2022/01/12 04:53:42;;;;;;;;;;;20.10;56.50;;;;;;6240925;23;19910;-81
2022/01/12 04:56:08;;;;;;;;;;;20.00;56.80;;;;;;6240982;23;19954;-83
2022/01/12 04:58:33;;;;;;;;;;;20.00;57.00;;;;;;6215226;23;19935;-83
2022/01/12 05:01:07;;;;;;;;;;;19.90;57.10;;;;;;6241652;23;19911;-82
2022/01/12 05:13:56;;;;;;;;;;;19.90;57.70;;;;;;6241065;23;19949;-81
2022/01/12 05:16:22;;;;;;;;;;;19.90;57.70;;;;;;6214171;23;19906;-84
2022/01/12 05:18:49;;;;;;;;;;;19.90;57.70;;;;;;6213642;23;20256;-81
2022/01/12 05:21:15;;;;;;;;;;;19.90;57.80;;;;;;6240447;23;20034;-81
2022/01/12 05:23:40;;;;;;;;;;;19.90;57.70;;;;;;6233942;23;19904;-81
2022/01/12 05:26:06;;;;;;;;;;;19.90;57.60;;;;;;6238495;23;19978;-81
2022/01/12 05:28:33;;;;;;;;;;;20.00;57.60;;;;;;6240324;23;19907;-80
2022/01/12 05:30:59;;;;;;;;;;;20.00;57.60;;;;;;6239816;23;19903;-81
2022/01/12 05:33:25;;;;;;;;;;;20.00;57.50;;;;;;6240313;23;19943;-80
2022/01/12 05:35:51;;;;;;;;;;;20.00;57.50;;;;;;6240687;23;19987;-83
2022/01/12 05:38:17;;;;;;;;;;;20.00;57.60;;;;;;6240937;23;19987;-80
2022/01/12 05:40:46;;;;;;;;;;;20.00;57.60;;;;;;6240775;23;20324;-80
2022/01/12 05:43:11;;;;;;;;;;;20.00;57.50;;;;;;6240654;23;19903;-79
2022/01/12 05:45:39;;;;;;;;;;;20.00;57.50;;;;;;6240045;23;19907;-82
2022/01/12 05:50:34;;;;;;;;;;;19.90;57.40;;;;;;6242384;23;19987;-81
2022/01/12 05:52:59;;;;;;;;;;;20.00;57.50;;;;;;6242662;23;19904;-81
2022/01/12 05:55:25;;;;;;;;;;;19.90;57.50;;;;;;6214114;23;19959;-81
2022/01/12 05:57:50;;;;;;;;;;;19.90;57.50;;;;;;6239994;23;19910;-82
2022/01/12 06:00:17;;;;;;;;;;;19.90;57.50;;;;;;6240454;23;20256;-82
2022/01/12 06:02:42;;;;;;;;;;;19.90;57.50;;;;;;6213577;23;19903;-80
2022/01/12 06:05:08;;;;;;;;;;;19.90;57.60;;;;;;6241066;23;19904;-82
2022/01/12 06:07:34;;;;;;;;;;;19.90;57.60;;;;;;6242022;23;19962;-81
2022/01/12 06:10:00;;;;;;;;;;;19.90;57.70;;;;;;6215226;23;19910;-84
2022/01/12 06:12:26;;;;;;;;;;;19.90;57.80;;;;;;6241112;23;20329;-81
2022/01/12 06:14:51;;;;;;;;;;;19.90;57.90;;;;;;6240733;23;19959;-81
2022/01/12 06:17:17;;;;;;;;;;;20.00;58.10;;;;;;6241039;23;20412;-81
2022/01/12 06:19:42;;;;;;;;;;;20.00;58.30;;;;;;6240711;23;20324;-81
2022/01/12 06:22:08;;;;;;;;;;;20.00;58.40;;;;;;6241532;23;19931;-82
2022/01/12 06:24:33;;;;;;;;;;;20.10;58.50;;;;;;6215563;23;19908;-81
2022/01/12 06:27:00;;;;;;;;;;;20.10;58.40;;;;;;6240745;23;20332;-81
2022/01/12 06:29:41;;;;;;;;;;;20.10;58.30;;;;;;6213385;23;19965;-81
2022/01/12 06:32:07;;;;;;;;;;;20.00;58.20;;;;;;6241155;23;20124;-81
2022/01/12 06:34:32;;;;;;;;;;;20.00;58.30;;;;;;6242413;23;19911;-81
2022/01/12 06:36:58;;;;;;;;;;;20.00;58.30;;;;;;6241428;23;19911;-80
2022/01/12 06:39:25;;;;;;;;;;;20.00;58.30;;;;;;6241097;23;19927;-81
2022/01/12 06:41:51;;;;;;;;;;;20.00;58.30;;;;;;6241454;23;19983;-81
2022/01/12 06:44:17;;;;;;;;;;;20.00;58.30;;;;;;6214368;23;19943;-82
2022/01/12 06:46:44;;;;;;;;;;;20.00;58.30;;;;;;6241321;23;19904;-82
2022/01/12 06:49:11;;;;;;;;;;;20.00;58.40;;;;;;6241433;23;19950;-82
2022/01/12 06:51:37;;;;;;;;;;;20.00;58.30;;;;;;6215143;23;19904;-82
2022/01/12 06:54:03;;;;;;;;;;;20.00;58.40;;;;;;6215436;23;19938;-81
2022/01/12 06:56:29;;;;;;;;;;;20.00;58.30;;;;;;6240909;23;19934;-81
2022/01/12 06:58:54;;;;;;;;;;;20.00;58.30;;;;;;6214244;23;19912;-81
2022/01/12 07:01:21;;;;;;;;;;;20.00;58.20;;;;;;6241139;23;19942;-81
2022/01/12 07:03:46;;;;;;;;;;;19.90;58.20;;;;;;6241323;23;19978;-82
2022/01/12 07:06:12;;;;;;;;;;;20.00;58.20;;;;;;6241465;23;19935;-81
2022/01/12 07:08:38;;;;;;;;;;;19.90;58.20;;;;;;6241705;23;19904;-81
2022/01/12 07:11:03;;;;;;;;;;;19.90;58.20;;;;;;6242278;23;20264;-82
2022/01/12 07:13:29;;;;;;;;;;;19.90;58.10;;;;;;6241161;23;19935;-82
2022/01/12 07:15:55;;;;;;;;;;;19.90;58.10;;;;;;6214187;23;19903;-82
2022/01/12 07:18:21;;;;;;;;;;;19.90;58.00;;;;;;6241358;23;19904;-81
2022/01/12 07:20:47;;;;;;;;;;;19.90;58.00;;;;;;6241087;23;19911;-81
2022/01/12 07:23:13;;;;;;;;;;;19.90;58.10;;;;;;6241146;23;20217;-82
2022/01/12 07:25:39;;;;;;;;;;;19.90;58.10;;;;;;6241500;23;20261;-81
2022/01/12 07:28:04;;;;;;;;;;;19.80;58.00;;;;;;6242059;23;19914;-82
2022/01/12 07:30:30;;;;;;;;;;;19.80;57.90;;;;;;6240904;23;19910;-82
2022/01/12 07:32:55;;;;;;;;;;;19.80;57.90;;;;;;6241288;23;19975;-81
2022/01/12 07:35:21;;;;;;;;;;;19.80;57.90;;;;;;6241225;23;20350;-81
2022/01/12 07:37:47;;;;;;;;;;;19.80;57.90;;;;;;6241216;23;20344;-80
2022/01/12 07:40:12;;;;;;;;;;;19.70;57.90;;;;;;6214225;23;20347;-80
2022/01/12 07:42:38;;;;;;;;;;;19.70;58.00;;;;;;6244014;23;19903;-80
2022/01/12 07:45:04;;;;;;;;;;;19.70;58.10;;;;;;6216136;23;19986;-80
2022/01/12 07:47:30;;;;;;;;;;;19.70;58.00;;;;;;6243334;23;20223;-80
2022/01/12 07:49:56;;;;;;;;;;;19.60;57.90;;;;;;6243107;23;20328;-81
2022/01/12 07:52:22;;;;;;;;;;;19.60;57.90;;;;;;6243160;23;19903;-80
2022/01/12 07:54:48;;;;;;;;;;;19.50;57.80;;;;;;6216010;23;19953;-80
2022/01/12 07:57:13;;;;;;;;;;;19.50;57.80;;;;;;6242943;23;20325;-80
2022/01/12 07:59:39;;;;;;;;;;;19.50;57.80;;;;;;6243857;23;19915;-81
2022/01/12 08:02:04;;;;;;;;;;;19.50;57.80;;;;;;6243094;23;19904;-81
2022/01/12 08:04:30;;;;;;;;;;;19.50;57.90;;;;;;6243083;23;20536;-81
2022/01/12 08:06:56;;;;;;;;;;;19.50;58.00;;;;;;6242923;23;20332;-80
2022/01/12 08:09:22;;;;;;;;;;;19.50;58.00;;;;;;6242954;23;19910;-80
2022/01/12 08:11:47;;;;;;;;;;;19.40;57.90;;;;;;6242960;23;19905;-80
2022/01/12 08:14:13;;;;;;;;;;;19.40;58.00;;;;;;6242652;23;20291;-80
2022/01/12 08:16:39;;;;;;;;;;;19.40;57.90;;;;;;6243984;23;19903;-81
2022/01/12 08:19:04;;;;;;;;;;;19.40;57.90;;;;;;6242838;23;20251;-81
2022/01/12 08:21:30;;;;;;;;;;;19.40;57.90;;;;;;6215972;23;20292;-81
2022/01/12 08:23:55;;;;;;;;;;;19.30;57.80;;;;;;6242841;23;19903;-81
2022/01/12 08:26:21;;;;;;;;;;;19.30;57.80;;;;;;6242723;23;19910;-81
2022/01/12 08:28:47;;;;;;;;;;;19.30;57.90;;;;;;6215717;23;19903;-81
2022/01/12 08:31:12;;;;;;;;;;;19.30;57.80;;;;;;6243425;23;19973;-81
2022/01/12 08:33:38;;;;;;;;;;;19.30;57.90;;;;;;6243719;23;19957;-81
2022/01/12 08:36:04;;;;;;;;;;;19.30;57.80;;;;;;6215868;23;19927;-81
2022/01/12 08:38:30;;;;;;;;;;;19.30;57.80;;;;;;6215697;23;19903;-81
2022/01/12 08:40:55;;;;;;;;;;;19.20;57.80;;;;;;6215653;23;20397;-81
2022/01/12 08:43:21;;;;;;;;;;;19.20;57.70;;;;;;6215178;23;19910;-81
2022/01/12 08:45:46;;;;;;;;;;;19.20;57.70;;;;;;6242853;23;19903;-81
2022/01/12 08:48:12;;;;;;;;;;;19.20;57.70;;;;;;6243629;23;19904;-81
2022/01/12 08:50:37;;;;;;;;;;;19.20;57.70;;;;;;6242519;23;19904;-80
2022/01/12 08:53:03;;;;;;;;;;;19.10;57.60;;;;;;6242164;23;20241;-81
2022/01/12 08:55:29;;;;;;;;;;;19.10;57.60;;;;;;6242449;23;19965;-80
2022/01/12 08:57:58;;;;;;;;;;;19.20;57.80;;;;;;6242344;23;20247;-80
2022/01/12 09:00:24;;;;;;;;;;;19.10;57.70;;;;;;6242502;23;20329;-81
2022/01/12 09:02:49;;;;;;;;;;;19.20;57.70;;;;;;6242406;23;19903;-81
2022/01/12 09:05:15;;;;;;;;;;;19.10;57.60;;;;;;6242394;23;19910;-81
2022/01/12 09:07:40;;;;;;;;;;;19.10;57.70;;;;;;6243511;23;19910;-81
2022/01/12 09:10:06;;;;;;;;;;;19.10;57.70;;;;;;6242349;23;19904;-81
2022/01/12 09:12:32;;;;;;;;;;;19.10;57.60;;;;;;6242102;23;19908;-81
2022/01/12 09:14:57;;;;;;;;;;;19.10;57.70;;;;;;6215476;23;19915;-81
2022/01/12 09:17:23;;;;;;;;;;;19.00;57.60;;;;;;6242350;23;19922;-81
2022/01/12 09:19:49;;;;;;;;;;;19.00;57.60;;;;;;6215265;23;20217;-81
2022/01/12 09:22:15;;;;;;;;;;;19.00;57.60;;;;;;6243051;23;19952;-81
2022/01/12 09:24:42;;;;;;;;;;;19.00;57.60;;;;;;6243116;23;19904;-80
2022/01/12 09:27:07;;;;;;;;;;;19.00;57.60;;;;;;6241966;23;19903;-80
2022/01/12 09:29:33;;;;;;;;;;;19.00;57.60;;;;;;6242251;23;20300;-80
2022/01/12 09:31:58;;;;;;;;;;;19.00;57.60;;;;;;6242172;23;19910;-80
2022/01/12 09:34:24;;;;;;;;;;;19.00;57.60;;;;;;6242250;23;19907;-80
2022/01/12 09:36:49;;;;;;;;;;;19.00;57.60;;;;;;6242161;23;19982;-80
2022/01/12 09:39:15;;;;;;;;;;;18.90;57.50;;;;;;6242982;23;20390;-80
2022/01/12 09:41:41;;;;;;;;;;;18.90;57.50;;;;;;6242654;23;19904;-80
2022/01/12 09:44:06;;;;;;;;;;;18.90;57.50;;;;;;6242186;23;20340;-80
2022/01/12 09:46:32;;;;;;;;;;;18.90;57.60;;;;;;6242125;23;19911;-80
2022/01/12 09:48:59;;;;;;;;;;;18.90;57.60;;;;;;6242007;23;20248;-80
2022/01/12 09:51:25;;;;;;;;;;;18.90;57.50;;;;;;6241928;23;20344;-80
2022/01/12 09:53:52;;;;;;;;;;;18.80;57.50;;;;;;6215111;23;19950;-79
2022/01/12 09:56:22;;;;;;;;;;;18.90;57.50;;;;;;6241740;23;19911;-79
2022/01/12 09:58:48;;;;;;;;;;;18.80;57.50;;;;;;6241999;23;19903;-80
2022/01/12 10:01:21;;;;;;;;;;;18.80;57.50;;;;;;6216188;23;19904;-80
2022/01/12 10:03:47;;;;;;;;;;;18.80;57.60;;;;;;6242536;23;19911;-80
2022/01/12 10:06:14;;;;;;;;;;;18.80;57.60;;;;;;6242774;23;19903;-81
2022/01/12 10:08:39;;;;;;;;;;;18.80;57.50;;;;;;6241653;23;19949;-80
2022/01/12 10:11:06;;;;;;;;;;;18.80;57.60;;;;;;6215020;23;19908;-80
2022/01/12 10:13:32;;;;;;;;;;;18.80;57.50;;;;;;6241742;23;19903;-80
2022/01/12 10:16:08;;;;;;;;;;;18.80;57.50;;;;;;6241805;23;19904;-80
2022/01/12 10:18:42;;;;;;;;;;;18.70;57.50;;;;;;6214596;23;20324;-80
2022/01/12 10:21:08;;;;;;;;;;;18.80;57.60;;;;;;6241598;23;19908;-79
2022/01/12 10:23:38;;;;;;;;;;;18.70;57.50;;;;;;6241764;23;19915;-80
2022/01/12 10:26:03;;;;;;;;;;;18.70;58.60;;;;;;6241642;23;19910;-79
2022/01/12 10:28:29;;;;;;;;;;;18.70;57.50;;;;;;6241662;23;19986;-80
2022/01/12 10:31:01;;;;;;;;;;;18.70;57.50;;;;;;6241561;23;20247;-80
2022/01/12 10:33:31;;;;;;;;;;;18.70;57.50;;;;;;6214599;23;19904;-80
2022/01/12 10:35:58;;;;;;;;;;;18.70;57.50;;;;;;6241407;23;19931;-80
2022/01/12 10:38:24;;;;;;;;;;;18.70;57.50;;;;;;6241606;23;20355;-80
2022/01/12 10:40:50;;;;;;;;;;;18.70;57.40;;;;;;6241534;23;19911;-80
2022/01/12 10:43:24;;;;;;;;;;;18.70;57.40;;;;;;6242689;23;19903;-80
2022/01/12 10:45:50;;;;;;;;;;;18.70;57.40;;;;;;6241462;23;19910;-79
2022/01/12 10:48:15;;;;;;;;;;;18.70;57.40;;;;;;6242349;23;19904;-80
2022/01/12 10:50:51;;;;;;;;;;;18.70;57.40;;;;;;6241571;23;19903;-79
2022/01/12 10:53:25;;;;;;;;;;;18.70;57.40;;;;;;6242643;23;19957;-80
2022/01/12 10:55:59;;;;;;;;;;;18.70;57.40;;;;;;6241500;23;19911;-80
2022/01/12 10:58:24;;;;;;;;;;;18.70;57.40;;;;;;6241349;23;19956;-81
2022/01/12 11:00:51;;;;;;;;;;;18.70;57.40;;;;;;6214934;23;19911;-80
2022/01/12 11:03:17;;;;;;;;;;;18.70;57.40;;;;;;6242498;23;19904;-80
2022/01/12 11:05:43;;;;;;;;;;;18.70;57.40;;;;;;6241423;23;19903;-80
2022/01/12 11:08:10;;;;;;;;;;;18.70;57.40;;;;;;6241302;23;19942;-80
2022/01/12 11:10:36;;;;;;;;;;;18.80;57.40;;;;;;6241207;23;19911;-80
2022/01/12 11:13:02;;;;;;;;;;;18.80;57.50;;;;;;6241137;23;19907;-80
2022/01/12 11:15:27;;;;;;;;;;;18.80;57.40;;;;;;6241052;23;19903;-80
2022/01/12 11:17:53;;;;;;;;;;;18.80;57.30;;;;;;6241325;23;19935;-80
2022/01/12 11:20:19;;;;;;;;;;;18.80;57.30;;;;;;6242194;23;19911;-81
2022/01/12 11:22:56;;;;;;;;;;;18.80;58.30;;;;;;6240976;23;19907;-80
2022/01/12 11:25:21;;;;;;;;;;;18.90;57.30;;;;;;6241849;23;20281;-83
2022/01/12 11:27:51;;;;;;;;;;;18.90;57.30;;;;;;6244960;23;19910;-81
2022/01/12 11:30:21;;;;;;;;;;;18.80;57.30;;;;;;6242270;23;19912;-80
2022/01/12 11:32:56;;;;;;;;;;;18.90;57.30;;;;;;6240794;23;19904;-81
2022/01/12 11:35:25;;;;;;;;;;;18.90;57.20;;;;;;6241909;23;19904;-81
2022/01/12 11:37:54;;;;;;;;;;;18.90;57.50;;;;;;6241601;23;19935;-80
2022/01/12 11:40:30;;;;;;;;;;;19.00;57.80;;;;;;6243158;23;19920;-80
2022/01/12 11:42:56;;;;;;;;;;;19.00;58.00;;;;;;6241070;23;19904;-82
2022/01/12 11:45:21;;;;;;;;;;;19.10;58.00;;;;;;6242141;23;19908;-80
2022/01/12 11:47:47;;;;;;;;;;;19.20;58.50;;;;;;6241018;23;20298;-83
2022/01/12 11:50:12;;;;;;;;;;;19.20;58.50;;;;;;6243752;23;20135;-81
2022/01/12 11:52:38;;;;;;;;;;;19.20;58.50;;;;;;6214056;23;19903;-81
2022/01/12 11:55:08;;;;;;;;;;;19.30;58.60;;;;;;6240541;23;19908;-82
2022/01/12 11:57:36;;;;;;;;;;;19.30;58.30;;;;;;6240860;23;19919;-80
2022/01/12 12:00:09;;;;;;;;;;;19.30;58.20;;;;;;6240814;23;19943;-81
2022/01/12 12:02:36;;;;;;;;;;;19.40;58.30;;;;;;6214441;23;20340;-79
2022/01/12 12:05:06;;;;;;;;;;;19.40;58.20;;;;;;6240608;23;19983;-80
2022/01/12 12:07:41;;;;;;;;;;;19.40;58.20;;;;;;6241018;23;19904;-81
2022/01/12 12:10:11;;;;;;;;;;;19.40;58.30;;;;;;6240901;23;19949;-80
2022/01/12 12:12:37;;;;;;;;;;;19.40;58.30;;;;;;6240368;23;19903;-81
2022/01/12 12:15:04;;;;;;;;;;;19.40;58.30;;;;;;6213444;23;19904;-84
2022/01/12 12:17:31;;;;;;;;;;;19.40;58.10;;;;;;6213605;23;19903;-81
2022/01/12 12:19:57;;;;;;;;;;;19.40;58.10;;;;;;6240471;23;20251;-81
2022/01/12 12:22:33;;;;;;;;;;;19.40;58.00;;;;;;6241624;23;20343;-81
2022/01/12 12:25:00;;;;;;;;;;;19.30;58.00;;;;;;6240471;23;19927;-81
2022/01/12 12:27:26;;;;;;;;;;;19.30;58.00;;;;;;6242395;23;20312;-79
2022/01/12 12:29:53;;;;;;;;;;;19.30;57.90;;;;;;6243323;23;20328;-81
2022/01/12 12:32:20;;;;;;;;;;;19.30;57.90;;;;;;6242509;23;20355;-80
2022/01/12 12:34:46;;;;;;;;;;;19.30;58.90;;;;;;6242303;23;20459;-80
2022/01/12 12:37:13;;;;;;;;;;;19.30;57.90;;;;;;6242871;23;20240;-81
2022/01/12 12:39:40;;;;;;;;;;;19.30;57.90;;;;;;6242969;23;19911;-80
2022/01/12 12:42:13;;;;;;;;;;;19.20;57.80;;;;;;6242634;23;19999;-80
2022/01/12 12:44:39;;;;;;;;;;;19.20;57.80;;;;;;6242529;23;19903;-80
2022/01/12 12:47:19;;;;;;;;;;;19.20;57.80;;;;;;6215615;23;19908;-82
2022/01/12 12:49:45;;;;;;;;;;;19.20;57.80;;;;;;6242620;23;20340;-81
2022/01/12 12:52:10;;;;;;;;;;;19.20;57.80;;;;;;6242675;23;19918;-80
2022/01/12 12:54:40;;;;;;;;;;;19.20;57.80;;;;;;6242429;23;19978;-80
2022/01/12 12:57:07;;;;;;;;;;;19.20;57.80;;;;;;6242412;23;19908;-80
2022/01/12 12:59:32;;;;;;;;;;;19.20;57.70;;;;;;6215307;23;20252;-80
2022/01/12 13:01:58;;;;;;;;;;;19.10;57.70;;;;;;6242522;23;19987;-81
2022/01/12 13:04:23;;;;;;;;;;;19.10;57.60;;;;;;6243524;23;19907;-80
2022/01/12 13:06:49;;;;;;;;;;;19.10;57.60;;;;;;6242453;23;19911;-80
2022/01/12 13:09:16;;;;;;;;;;;19.10;57.70;;;;;;6242335;23;19907;-80
2022/01/12 13:11:49;;;;;;;;;;;19.10;57.60;;;;;;6242237;23;19903;-80
2022/01/12 13:14:15;;;;;;;;;;;19.10;57.70;;;;;;6215246;23;19904;-81
2022/01/12 13:16:44;;;;;;;;;;;19.10;57.70;;;;;;6242528;23;19904;-80
2022/01/12 13:19:22;;;;;;;;;;;19.10;57.70;;;;;;6215201;23;19954;-80
2022/01/12 13:21:47;;;;;;;;;;;19.10;57.80;;;;;;6242283;23;20252;-81
2022/01/12 13:24:13;;;;;;;;;;;19.10;57.80;;;;;;6215364;23;19904;-81
2022/01/12 13:26:38;;;;;;;;;;;19.10;57.80;;;;;;6242159;23;19904;-79
2022/01/12 13:29:05;;;;;;;;;;;19.10;57.80;;;;;;6242221;23;19903;-81
2022/01/12 13:31:31;;;;;;;;;;;19.10;57.80;;;;;;6215855;23;19938;-84
2022/01/12 13:33:58;;;;;;;;;;;19.20;58.90;;;;;;6243213;23;19904;-82
2022/01/12 13:36:28;;;;;;;;;;;19.10;57.80;;;;;;6243158;23;19986;-81
2022/01/12 13:38:55;;;;;;;;;;;19.10;57.70;;;;;;6215362;23;19903;-80
2022/01/12 13:41:22;;;;;;;;;;;19.10;57.70;;;;;;6241537;23;20405;-83
2022/01/12 13:43:53;;;;;;;;;;;19.20;57.80;;;;;;6242135;23;19972;-80
2022/01/12 13:46:19;;;;;;;;;;;19.20;57.70;;;;;;6215039;23;19903;-80
2022/01/12 13:49:05;;;;;;;;;;;19.20;57.80;;;;;;6242028;23;19910;-80
2022/01/12 13:51:37;;;;;;;;;;;19.10;57.70;;;;;;6242048;23;20332;-79
2022/01/12 13:54:04;;;;;;;;;;;19.20;57.80;;;;;;6242173;23;19910;-80
2022/01/12 13:56:33;;;;;;;;;;;19.30;57.80;;;;;;6242994;23;20329;-80
2022/01/12 13:58:59;;;;;;;;;;;19.10;57.70;;;;;;6242856;23;19919;-80
2022/01/12 14:01:29;;;;;;;;;;;19.10;57.70;;;;;;6241766;23;19912;-80
2022/01/12 14:04:06;;;;;;;;;;;19.10;57.70;;;;;;6241764;23;19904;-81
2022/01/12 14:06:37;;;;;;;;;;;19.10;57.80;;;;;;6242004;23;19904;-80
2022/01/12 14:09:08;;;;;;;;;;;19.20;57.80;;;;;;6242082;23;19903;-81
2022/01/12 14:11:35;;;;;;;;;;;19.20;57.80;;;;;;6241887;23;19910;-80
2022/01/12 14:14:01;;;;;;;;;;;19.20;57.80;;;;;;6242386;23;19904;-80
2022/01/12 14:16:31;;;;;;;;;;;19.20;57.80;;;;;;6242742;23;19994;-81
2022/01/12 14:18:57;;;;;;;;;;;19.20;57.80;;;;;;6241816;23;19982;-80
2022/01/12 14:21:23;;;;;;;;;;;19.30;57.90;;;;;;6241793;23;19907;-79
2022/01/12 14:23:48;;;;;;;;;;;19.30;57.80;;;;;;6214674;23;19951;-90
2022/01/12 14:26:24;;;;;;;;;;;19.30;57.90;;;;;;6241300;23;19931;-84
2022/01/12 14:28:50;;;;;;;;;;;19.30;58.00;;;;;;6241042;23;19910;-81
2022/01/12 14:31:16;;;;;;;;;;;19.40;58.20;;;;;;6240774;23;19932;-81
2022/01/12 14:33:41;;;;;;;;;;;19.50;58.30;;;;;;6238186;23;19907;-81
2022/01/12 14:36:07;;;;;;;;;;;19.60;58.20;;;;;;6240805;23;19904;-81
2022/01/12 14:38:32;;;;;;;;;;;19.60;59.20;;;;;;6213996;23;20252;-82
2022/01/12 14:40:58;;;;;;;;;;;19.60;58.20;;;;;;6214867;23;20324;-81
2022/01/12 14:43:29;;;;;;;;;;;19.70;58.20;;;;;;6240901;23;19982;-80
2022/01/12 14:45:54;;;;;;;;;;;19.70;58.20;;;;;;6240909;23;19991;-81
2022/01/12 14:48:23;;;;;;;;;;;19.70;58.30;;;;;;6240312;23;19939;-80
2022/01/12 14:50:49;;;;;;;;;;;19.70;58.60;;;;;;6241909;23;20328;-81
2022/01/12 14:53:17;;;;;;;;;;;19.80;58.70;;;;;;6241381;23;19907;-81
2022/01/12 14:55:43;;;;;;;;;;;19.90;59.10;;;;;;6241145;23;20256;-83
2022/01/12 14:58:09;;;;;;;;;;;19.90;59.30;;;;;;6240891;23;19907;-81
2022/01/12 15:00:37;;;;;;;;;;;20.00;59.40;;;;;;6240920;23;19919;-82
2022/01/12 15:03:04;;;;;;;;;;;20.10;59.60;;;;;;6240873;23;19935;-81
2022/01/12 15:05:30;;;;;;;;;;;20.10;59.50;;;;;;6241956;23;19931;-82
2022/01/12 15:07:56;;;;;;;;;;;20.10;59.30;;;;;;6240922;23;19904;-82
2022/01/12 15:10:22;;;;;;;;;;;20.20;59.30;;;;;;6240665;23;19903;-81
2022/01/12 15:12:51;;;;;;;;;;;20.20;59.30;;;;;;6214277;23;19926;-80
2022/01/12 15:15:18;;;;;;;;;;;20.20;59.20;;;;;;6240847;23;20248;-80
2022/01/12 15:17:43;;;;;;;;;;;20.20;59.20;;;;;;6239922;23;19954;-81
2022/01/12 15:20:10;;;;;;;;;;;20.20;59.20;;;;;;6240607;23;20252;-80
2022/01/12 15:22:37;;;;;;;;;;;20.20;59.20;;;;;;6240563;23;19914;-80
2022/01/12 15:25:03;;;;;;;;;;;20.20;59.20;;;;;;6241204;23;19930;-79
2022/01/12 15:27:28;;;;;;;;;;;20.20;59.00;;;;;;6212953;23;19907;-80
2022/01/12 15:29:55;;;;;;;;;;;20.30;59.20;;;;;;6240350;23;20495;-79
2022/01/12 15:32:20;;;;;;;;;;;20.30;59.10;;;;;;6240035;23;19904;-80
2022/01/12 15:34:46;;;;;;;;;;;20.30;59.00;;;;;;6240477;23;19904;-81
2022/01/12 15:37:11;;;;;;;;;;;20.30;59.10;;;;;;6240531;23;20284;-80
2022/01/12 15:39:37;;;;;;;;;;;20.30;59.00;;;;;;6240388;23;19911;-79
2022/01/12 15:42:02;;;;;;;;;;;20.30;58.90;;;;;;6241352;23;19957;-82
2022/01/12 15:44:30;;;;;;;;;;;20.30;58.80;;;;;;6240596;23;19904;-84
2022/01/12 15:46:56;;;;;;;;;;;20.30;59.00;;;;;;6239850;23;19915;-85
2022/01/12 15:49:22;;;;;;;;;;;20.30;59.10;;;;;;6240389;23;20408;-83
2022/01/12 15:51:47;;;;;;;;;;;20.30;59.20;;;;;;6240403;23;19904;-84
2022/01/12 15:54:13;;;;;;;;;;;20.30;59.40;;;;;;6240316;23;19910;-83
2022/01/12 15:56:39;;;;;;;;;;;20.40;59.40;;;;;;6240244;23;19912;-80
2022/01/12 15:59:04;;;;;;;;;;;20.40;59.50;;;;;;6241557;23;19990;-79
2022/01/12 16:01:30;;;;;;;;;;;20.40;59.40;;;;;;6240749;23;19908;-80
2022/01/12 16:03:56;;;;;;;;;;;20.40;59.40;;;;;;6242757;23;20359;-80
2022/01/12 16:06:23;;;;;;;;;;;20.40;59.40;;;;;;6242808;23;19911;-82
2022/01/12 16:08:49;;;;;;;;;;;20.40;59.60;;;;;;6242361;23;19982;-85
2022/01/12 16:11:16;;;;;;;;;;;20.40;59.60;;;;;;6243498;23;19946;-80
2022/01/12 16:13:43;;;;;;;;;;;20.40;59.60;;;;;;6242692;23;20395;-81
2022/01/12 16:16:09;;;;;;;;;;;20.40;59.70;;;;;;6214605;23;20295;-83
2022/01/12 16:18:36;;;;;;;;;;;20.50;59.80;;;;;;6243617;23;19908;-83
2022/01/12 16:21:03;;;;;;;;;;;20.50;59.80;;;;;;6243367;23;20358;-80
2022/01/12 16:23:29;;;;;;;;;;;20.50;59.70;;;;;;6242590;23;20388;-81
2022/01/12 16:25:59;;;;;;;;;;;20.50;59.70;;;;;;6242406;23;19904;-81
2022/01/12 16:28:25;;;;;;;;;;;20.50;59.70;;;;;;6242812;23;20332;-80
2022/01/12 16:30:53;;;;;;;;;;;20.50;59.60;;;;;;6241933;23;20247;-81
2022/01/12 16:33:19;;;;;;;;;;;20.50;59.60;;;;;;6242482;23;20287;-81
2022/01/12 16:35:46;;;;;;;;;;;20.50;59.50;;;;;;6242540;23;19904;-82
2022/01/12 16:38:12;;;;;;;;;;;20.50;59.50;;;;;;6215362;23;19903;-81
2022/01/12 16:40:38;;;;;;;;;;;20.50;59.60;;;;;;6241911;23;19915;-79
2022/01/12 16:43:05;;;;;;;;;;;20.50;59.70;;;;;;6215987;23;20317;-81
2022/01/12 16:45:31;;;;;;;;;;;20.50;60.00;;;;;;6242275;23;19907;-81
2022/01/12 16:47:57;;;;;;;;;;;20.50;60.20;;;;;;6241598;23;20186;-80
2022/01/12 16:50:22;;;;;;;;;;;20.60;60.30;;;;;;6242242;23;19950;-81
2022/01/12 16:52:48;;;;;;;;;;;20.60;60.50;;;;;;6241932;23;19903;-81
2022/01/12 16:55:13;;;;;;;;;;;20.60;60.60;;;;;;6241599;23;19918;-82
2022/01/12 16:57:42;;;;;;;;;;;20.70;60.70;;;;;;6214640;23;20333;-81
2022/01/12 17:00:08;;;;;;;;;;;20.70;60.70;;;;;;6243541;23;19957;-81
2022/01/12 17:02:33;;;;;;;;;;;20.70;61.10;;;;;;6242162;23;19910;-83
2022/01/12 17:04:59;;;;;;;;;;;20.70;61.20;;;;;;6241901;23;19982;-82
2022/01/12 17:07:24;;;;;;;;;;;20.80;61.50;;;;;;6241700;23;19990;-81
2022/01/12 17:09:50;;;;;;;;;;;20.80;61.70;;;;;;6241753;23;19919;-81
2022/01/12 17:12:15;;;;;;;;;;;20.80;61.60;;;;;;6241765;23;20233;-81
2022/01/12 17:14:42;;;;;;;;;;;20.80;61.70;;;;;;6214836;23;19904;-81
2022/01/12 17:17:26;;;;;;;;;;;20.80;61.70;;;;;;6241069;23;19909;-82
2022/01/12 17:19:52;;;;;;;;;;;20.80;62.60;;;;;;6241869;23;20340;-82
2022/01/12 17:22:19;;;;;;;;;;;20.80;62.40;;;;;;6215018;23;19978;-84
2022/01/12 17:25:03;;;;;;;;;;;20.80;62.00;;;;;;6213976;23;19908;-82
2022/01/12 17:27:29;;;;;;;;;;;20.70;61.90;;;;;;6241750;23;20136;-82
2022/01/12 17:29:55;;;;;;;;;;;20.70;61.90;;;;;;6239935;23;20283;-82
2022/01/12 17:32:21;;;;;;;;;;;20.70;61.70;;;;;;6240791;23;19907;-79
2022/01/12 17:34:46;;;;;;;;;;;20.70;61.80;;;;;;6241947;23;20265;-83
2022/01/12 17:37:14;;;;;;;;;;;20.60;62.10;;;;;;6241990;23;19982;-82
2022/01/12 17:39:46;;;;;;;;;;;20.60;62.00;;;;;;6215325;23;19911;-83